^^
Station Historical Data
Daily Summary for March 2, 2018 Units:  Both    English   Metric
« Previous Day
Next Day »
Daily Weekly Monthly Yearly Custom
  High: Low: Average:
Temperature: TemperatureF °F /  -17.8 °C 63.9 °F /  17.7 °C 74.8 °F /  23.8 °C
Dew Point: DewpointF °F /  -17.8 °C 49.1 °F /  9.5 °C 51.9 °F /  11.1 °C
Humidity: Humidity% 34% 45%
Wind Speed: WindSpeedMPHmph /  0km/h - 5.6mph /  9km/h
Wind Gust: WindSpeedGustMPHmph /  0km/h - -
Wind- - South
Pressure: PressureIn in /  0 hPa 29.53 in /  999.9 hPa -
Precipitation: 0.00 in /  0 mm    
Historical Graphs
 
 
Tabular Data for March 2, 2018
Time Temperature Dew Point Pressure Wind Wind Speed Wind Gust Humidity Rainfall Rate (Hourly) solar Conditions
TemperatureF °F /  -17.8 °C DewpointF °F /  -17.8 °C PressureInin /  0hPa Calm     Humidity% HourlyPrecipInin /  0mm SoftwareType W/m2 Conditions
08:05 63.9 °F /  17.7 °C 54.3 °F /  12.4 °C 29.61in /  1002.6hPa Calm     71% 0.00in /  0mm meteobridge W/m2
08:11 63.9 °F /  17.7 °C 54.0 °F /  12.2 °C 29.61in /  1002.6hPa Calm     70% 0.00in /  0mm meteobridge W/m2
08:17 64.0 °F /  17.8 °C 53.6 °F /  12 °C 29.62in /  1002.9hPa Calm     69% 0.00in /  0mm meteobridge W/m2
08:24 64.2 °F /  17.9 °C 53.4 °F /  11.9 °C 29.62in /  1002.9hPa Calm   1.0mph /  1.6km/h 68% 0.00in /  0mm meteobridge W/m2
08:30 65.5 °F /  18.6 °C 53.1 °F /  11.7 °C 29.62in /  1002.9hPa Calm     64% 0.00in /  0mm meteobridge W/m2
08:36 66.6 °F /  19.2 °C 53.6 °F /  12 °C 29.62in /  1002.9hPa Calm   1.0mph /  1.6km/h 63% 0.00in /  0mm meteobridge W/m2
08:42 67.8 °F /  19.9 °C 54.0 °F /  12.2 °C 29.62in /  1002.9hPa Calm     61% 0.00in /  0mm meteobridge W/m2
08:48 68.7 °F /  20.4 °C 54.3 °F /  12.4 °C 29.62in /  1002.9hPa Calm   3.0mph /  4.8km/h 60% 0.00in /  0mm meteobridge W/m2
08:54 69.3 °F /  20.7 °C 53.4 °F /  11.9 °C 29.62in /  1002.9hPa Calm     57% 0.00in /  0mm meteobridge W/m2
09:00 70.0 °F /  21.1 °C 54.0 °F /  12.2 °C 29.62in /  1002.9hPa Calm     57% 0.00in /  0mm meteobridge W/m2
09:07 70.5 °F /  21.4 °C 54.5 °F /  12.5 °C 29.62in /  1002.9hPa Calm   2.0mph /  3.2km/h 57% 0.00in /  0mm meteobridge W/m2
09:13 71.2 °F /  21.8 °C 54.3 °F /  12.4 °C 29.61in /  1002.6hPa ESE 2.9mph /  4.7km/h 3.0mph /  4.8km/h 55% 0.00in /  0mm meteobridge W/m2
09:19 71.2 °F /  21.8 °C 54.7 °F /  12.6 °C 29.61in /  1002.6hPa ESE 0.9mph /  1.4km/h 2.0mph /  3.2km/h 56% 0.00in /  0mm meteobridge W/m2
09:25 71.4 °F /  21.9 °C 54.5 °F /  12.5 °C 29.62in /  1002.9hPa South 2.0mph /  3.2km/h 5.0mph /  8km/h 55% 0.00in /  0mm meteobridge W/m2
09:31 71.8 °F /  22.1 °C 55.2 °F /  12.9 °C 29.62in /  1002.9hPa Calm   3.0mph /  4.8km/h 56% 0.00in /  0mm meteobridge W/m2
09:37 73.0 °F /  22.8 °C 55.9 °F /  13.3 °C 29.62in /  1002.9hPa South 2.0mph /  3.2km/h 2.0mph /  3.2km/h 55% 0.00in /  0mm meteobridge W/m2
09:55 74.8 °F /  23.8 °C 55.6 °F /  13.1 °C 29.62in /  1002.9hPa Calm   3.0mph /  4.8km/h 51% 0.00in /  0mm meteobridge W/m2
10:02 75.6 °F /  24.2 °C 55.6 °F /  13.1 °C 29.62in /  1002.9hPa Calm   1.0mph /  1.6km/h 50% 0.00in /  0mm meteobridge W/m2
10:08 75.9 °F /  24.4 °C 53.1 °F /  11.7 °C 29.62in /  1002.9hPa NNW 10.1mph /  16.3km/h 10.1mph /  16.3km/h 45% 0.00in /  0mm meteobridge W/m2
10:14 75.0 °F /  23.9 °C 54.5 °F /  12.5 °C 29.62in /  1002.9hPa North 2.0mph /  3.2km/h 6.0mph /  9.7km/h 49% 0.00in /  0mm meteobridge W/m2
10:20 74.8 °F /  23.8 °C 55.0 °F /  12.8 °C 29.62in /  1002.9hPa NW 2.0mph /  3.2km/h 7.0mph /  11.3km/h 50% 0.00in /  0mm meteobridge W/m2
10:26 74.8 °F /  23.8 °C 53.2 °F /  11.8 °C 29.62in /  1002.9hPa North 6.0mph /  9.7km/h 11.0mph /  17.7km/h 47% 0.00in /  0mm meteobridge W/m2
10:32 74.8 °F /  23.8 °C 55.0 °F /  12.8 °C 29.62in /  1002.9hPa North 6.0mph /  9.7km/h 10.0mph /  16.1km/h 50% 0.00in /  0mm meteobridge W/m2
10:38 74.7 °F /  23.7 °C 54.9 °F /  12.7 °C 29.62in /  1002.9hPa North 4.0mph /  6.4km/h 13.0mph /  20.9km/h 50% 0.00in /  0mm meteobridge W/m2
10:44 74.8 °F /  23.8 °C 53.8 °F /  12.1 °C 29.62in /  1002.9hPa North 8.1mph /  13km/h 15.0mph /  24.1km/h 48% 0.00in /  0mm meteobridge W/m2
10:50 74.7 °F /  23.7 °C 54.3 °F /  12.4 °C 29.62in /  1002.9hPa NNE 6.9mph /  11.1km/h 12.0mph /  19.3km/h 49% 0.00in /  0mm meteobridge W/m2
10:57 74.1 °F /  23.4 °C 54.3 °F /  12.4 °C 29.62in /  1002.9hPa North 8.1mph /  13km/h 11.0mph /  17.7km/h 50% 0.00in /  0mm meteobridge W/m2
11:03 74.5 °F /  23.6 °C 54.7 °F /  12.6 °C 29.62in /  1002.9hPa NNW 6.9mph /  11.1km/h 11.0mph /  17.7km/h 50% 0.00in /  0mm meteobridge W/m2
11:09 74.1 °F /  23.4 °C 54.3 °F /  12.4 °C 29.62in /  1002.9hPa North 2.0mph /  3.2km/h 10.0mph /  16.1km/h 50% 0.00in /  0mm meteobridge W/m2
11:15 74.5 °F /  23.6 °C 54.1 °F /  12.3 °C 29.62in /  1002.9hPa Calm   4.0mph /  6.4km/h 49% 0.00in /  0mm meteobridge W/m2
11:21 75.7 °F /  24.3 °C 55.2 °F /  12.9 °C 29.61in /  1002.6hPa North 4.0mph /  6.4km/h 7.0mph /  11.3km/h 49% 0.00in /  0mm meteobridge W/m2
11:29 75.4 °F /  24.1 °C 54.3 °F /  12.4 °C 29.62in /  1002.9hPa NNE 4.0mph /  6.4km/h 14.0mph /  22.5km/h 48% 0.00in /  0mm meteobridge W/m2
11:35 75.6 °F /  24.2 °C 54.5 °F /  12.5 °C 29.62in /  1002.9hPa North 6.9mph /  11.1km/h 14.0mph /  22.5km/h 48% 0.00in /  0mm meteobridge W/m2
11:41 75.9 °F /  24.4 °C 54.9 °F /  12.7 °C 29.62in /  1002.9hPa West 2.0mph /  3.2km/h 5.0mph /  8km/h 48% 0.00in /  0mm meteobridge W/m2
11:48 75.9 °F /  24.4 °C 53.6 °F /  12 °C 29.62in /  1002.9hPa NNW 2.0mph /  3.2km/h 16.0mph /  25.7km/h 46% 0.00in /  0mm meteobridge W/m2
11:54 75.9 °F /  24.4 °C 54.3 °F /  12.4 °C 29.62in /  1002.9hPa North 12.1mph /  19.5km/h 15.0mph /  24.1km/h 47% 0.00in /  0mm meteobridge W/m2
12:00 75.4 °F /  24.1 °C 53.8 °F /  12.1 °C 29.62in /  1002.9hPa North 6.0mph /  9.7km/h 7.0mph /  11.3km/h 47% 0.00in /  0mm meteobridge W/m2
12:06 75.7 °F /  24.3 °C 52.9 °F /  11.6 °C 29.62in /  1002.9hPa North 6.9mph /  11.1km/h 13.0mph /  20.9km/h 45% 0.00in /  0mm meteobridge W/m2
12:12 76.6 °F /  24.8 °C 53.8 °F /  12.1 °C 29.62in /  1002.9hPa NNE 8.1mph /  13km/h 9.0mph /  14.5km/h 45% 0.00in /  0mm meteobridge W/m2
12:18 77.5 °F /  25.3 °C 52.7 °F /  11.5 °C 29.61in /  1002.6hPa North 2.9mph /  4.7km/h 10.0mph /  16.1km/h 42% 0.00in /  0mm meteobridge W/m2
12:24 77.5 °F /  25.3 °C 53.2 °F /  11.8 °C 29.62in /  1002.9hPa NW 6.0mph /  9.7km/h 13.0mph /  20.9km/h 43% 0.00in /  0mm meteobridge W/m2
12:30 78.3 °F /  25.7 °C 52.7 °F /  11.5 °C 29.61in /  1002.6hPa North 13.0mph /  20.9km/h 17.0mph /  27.4km/h 41% 0.00in /  0mm meteobridge W/m2
12:36 78.1 °F /  25.6 °C 53.8 °F /  12.1 °C 29.61in /  1002.6hPa North 6.9mph /  11.1km/h 15.0mph /  24.1km/h 43% 0.00in /  0mm meteobridge W/m2
12:43 78.6 °F /  25.9 °C 52.3 °F /  11.3 °C 29.61in /  1002.6hPa NW 6.9mph /  11.1km/h 19.0mph /  30.6km/h 40% 0.00in /  0mm meteobridge W/m2
12:49 78.4 °F /  25.8 °C 52.2 °F /  11.2 °C 29.60in /  1002.3hPa North 8.1mph /  13km/h 11.0mph /  17.7km/h 40% 0.00in /  0mm meteobridge W/m2
12:55 77.9 °F /  25.5 °C 52.3 °F /  11.3 °C 29.60in /  1002.3hPa North 8.9mph /  14.3km/h 16.0mph /  25.7km/h 41% 0.00in /  0mm meteobridge W/m2
13:18 78.3 °F /  25.7 °C 52.7 °F /  11.5 °C 29.59in /  1001.9hPa North 10.1mph /  16.3km/h 10.1mph /  16.3km/h 41% 0.00in /  0mm meteobridge W/m2
13:24 79.7 °F /  26.5 °C 51.8 °F /  11 °C 29.59in /  1001.9hPa NNE 8.9mph /  14.3km/h 12.0mph /  19.3km/h 38% 0.00in /  0mm meteobridge W/m2
13:30 76.8 °F /  24.9 °C 51.3 °F /  10.7 °C 29.59in /  1001.9hPa NNW 14.1mph /  22.7km/h 15.0mph /  24.1km/h 41% 0.00in /  0mm meteobridge W/m2
13:36 77.5 °F /  25.3 °C 52.0 °F /  11.1 °C 29.59in /  1001.9hPa NNW 6.9mph /  11.1km/h 12.0mph /  19.3km/h 41% 0.00in /  0mm meteobridge W/m2
13:42 78.8 °F /  26 °C 52.5 °F /  11.4 °C 29.59in /  1001.9hPa ENE 4.0mph /  6.4km/h 19.0mph /  30.6km/h 40% 0.00in /  0mm meteobridge W/m2
13:48 79.0 °F /  26.1 °C 52.5 °F /  11.4 °C 29.58in /  1001.6hPa North 14.1mph /  22.7km/h 14.1mph /  22.7km/h 40% 0.00in /  0mm meteobridge W/m2
13:54 79.5 °F /  26.4 °C 51.6 °F /  10.9 °C 29.58in /  1001.6hPa NNW 8.9mph /  14.3km/h 12.0mph /  19.3km/h 38% 0.00in /  0mm meteobridge W/m2
14:00 80.8 °F /  27.1 °C 52.2 °F /  11.2 °C 29.58in /  1001.6hPa North 4.0mph /  6.4km/h 4.0mph /  6.4km/h 37% 0.00in /  0mm meteobridge W/m2
14:06 79.3 °F /  26.3 °C 51.4 °F /  10.8 °C 29.58in /  1001.6hPa North 13.0mph /  20.9km/h 20.0mph /  32.2km/h 38% 0.00in /  0mm meteobridge W/m2
14:12 79.0 °F /  26.1 °C 51.3 °F /  10.7 °C 29.58in /  1001.6hPa North 8.1mph /  13km/h 16.0mph /  25.7km/h 38% 0.00in /  0mm meteobridge W/m2
14:19 79.3 °F /  26.3 °C 52.2 °F /  11.2 °C 29.57in /  1001.2hPa NW 6.9mph /  11.1km/h 12.0mph /  19.3km/h 39% 0.00in /  0mm meteobridge W/m2
14:25 79.0 °F /  26.1 °C 50.5 °F /  10.3 °C 29.58in /  1001.6hPa North 8.9mph /  14.3km/h 18.0mph /  29km/h 37% 0.00in /  0mm meteobridge W/m2
14:31 78.1 °F /  25.6 °C 50.4 °F /  10.2 °C 29.57in /  1001.2hPa North 6.9mph /  11.1km/h 9.0mph /  14.5km/h 38% 0.00in /  0mm meteobridge W/m2
14:37 78.6 °F /  25.9 °C 50.9 °F /  10.5 °C 29.57in /  1001.2hPa North 12.1mph /  19.5km/h 13.0mph /  20.9km/h 38% 0.00in /  0mm meteobridge W/m2
14:43 78.6 °F /  25.9 °C 51.6 °F /  10.9 °C 29.57in /  1001.2hPa NE 8.9mph /  14.3km/h 13.0mph /  20.9km/h 39% 0.00in /  0mm meteobridge W/m2
14:49 79.9 °F /  26.6 °C 51.3 °F /  10.7 °C 29.56in /  1000.9hPa North 11.0mph /  17.7km/h 16.0mph /  25.7km/h 37% 0.00in /  0mm meteobridge W/m2
14:55 80.2 °F /  26.8 °C 50.9 °F /  10.5 °C 29.55in /  1000.6hPa NE 2.9mph /  4.7km/h 13.0mph /  20.9km/h 36% 0.00in /  0mm meteobridge W/m2
15:13 80.8 °F /  27.1 °C 52.2 °F /  11.2 °C 29.55in /  1000.6hPa NNE 2.9mph /  4.7km/h 9.0mph /  14.5km/h 37% 0.00in /  0mm meteobridge W/m2
15:19 81.1 °F /  27.3 °C 50.9 °F /  10.5 °C 29.55in /  1000.6hPa North 2.0mph /  3.2km/h 8.0mph /  12.9km/h 35% 0.00in /  0mm meteobridge W/m2
15:26 81.1 °F /  27.3 °C 50.9 °F /  10.5 °C 29.54in /  1000.2hPa NNW 17.0mph /  27.4km/h 19.0mph /  30.6km/h 35% 0.00in /  0mm meteobridge W/m2
15:32 80.8 °F /  27.1 °C 50.5 °F /  10.3 °C 29.55in /  1000.6hPa North 11.0mph /  17.7km/h 17.0mph /  27.4km/h 35% 0.00in /  0mm meteobridge W/m2
15:38 79.5 °F /  26.4 °C 50.2 °F /  10.1 °C 29.54in /  1000.2hPa North 12.1mph /  19.5km/h 14.0mph /  22.5km/h 36% 0.00in /  0mm meteobridge W/m2
15:44 80.2 °F /  26.8 °C 50.2 °F /  10.1 °C 29.54in /  1000.2hPa NW 4.0mph /  6.4km/h 5.0mph /  8km/h 35% 0.00in /  0mm meteobridge W/m2
15:50 81.1 °F /  27.3 °C 50.9 °F /  10.5 °C 29.54in /  1000.2hPa North 10.1mph /  16.3km/h 14.0mph /  22.5km/h 35% 0.00in /  0mm meteobridge W/m2
15:56 79.5 °F /  26.4 °C 50.2 °F /  10.1 °C 29.54in /  1000.2hPa North 11.0mph /  17.7km/h 11.0mph /  17.7km/h 36% 0.00in /  0mm meteobridge W/m2
16:02 79.5 °F /  26.4 °C 49.5 °F /  9.7 °C 29.54in /  1000.2hPa NNW 11.0mph /  17.7km/h 14.0mph /  22.5km/h 35% 0.00in /  0mm meteobridge W/m2
16:08 80.4 °F /  26.9 °C 49.5 °F /  9.7 °C 29.54in /  1000.2hPa East 2.0mph /  3.2km/h 5.0mph /  8km/h 34% 0.00in /  0mm meteobridge W/m2
16:14 80.1 °F /  26.7 °C 50.0 °F /  10 °C 29.53in /  999.9hPa North 12.1mph /  19.5km/h 14.0mph /  22.5km/h 35% 0.00in /  0mm meteobridge W/m2
16:21 79.2 °F /  26.2 °C 49.1 °F /  9.5 °C 29.53in /  999.9hPa North 0.9mph /  1.4km/h 4.0mph /  6.4km/h 35% 0.00in /  0mm meteobridge W/m2
16:27 78.3 °F /  25.7 °C 49.1 °F /  9.5 °C 29.53in /  999.9hPa NNW 8.1mph /  13km/h 10.0mph /  16.1km/h 36% 0.00in /  0mm meteobridge W/m2
16:33 78.3 °F /  25.7 °C 49.8 °F /  9.9 °C 29.53in /  999.9hPa North 4.0mph /  6.4km/h 5.0mph /  8km/h 37% 0.00in /  0mm meteobridge W/m2
16:39 78.3 °F /  25.7 °C 49.1 °F /  9.5 °C 29.53in /  999.9hPa Calm   10.0mph /  16.1km/h 36% 0.00in /  0mm meteobridge W/m2
16:45 78.6 °F /  25.9 °C 49.5 °F /  9.7 °C 29.53in /  999.9hPa North 2.9mph /  4.7km/h 5.0mph /  8km/h 36% 0.00in /  0mm meteobridge W/m2
16:51 78.8 °F /  26 °C 49.6 °F /  9.8 °C 29.53in /  999.9hPa North 8.9mph /  14.3km/h 9.0mph /  14.5km/h 36% 0.00in /  0mm meteobridge W/m2
16:57 78.3 °F /  25.7 °C 49.1 °F /  9.5 °C 29.53in /  999.9hPa NNW 6.9mph /  11.1km/h 7.0mph /  11.3km/h 36% 0.00in /  0mm meteobridge W/m2
17:03 78.4 °F /  25.8 °C 49.3 °F /  9.6 °C 29.53in /  999.9hPa North 6.9mph /  11.1km/h 9.0mph /  14.5km/h 36% 0.00in /  0mm meteobridge W/m2
17:09 78.6 °F /  25.9 °C 49.5 °F /  9.7 °C 29.53in /  999.9hPa Calm   3.0mph /  4.8km/h 36% 0.00in /  0mm meteobridge W/m2
17:15 78.6 °F /  25.9 °C 51.6 °F /  10.9 °C 29.54in /  1000.2hPa South 6.0mph /  9.7km/h 10.0mph /  16.1km/h 39% 0.00in /  0mm meteobridge W/m2
17:22 78.6 °F /  25.9 °C 52.3 °F /  11.3 °C 29.54in /  1000.2hPa SE 8.9mph /  14.3km/h 16.0mph /  25.7km/h 40% 0.00in /  0mm meteobridge W/m2
17:28 75.9 °F /  24.4 °C 51.8 °F /  11 °C 29.54in /  1000.2hPa SE 6.0mph /  9.7km/h 19.0mph /  30.6km/h 43% 0.00in /  0mm meteobridge W/m2
17:34 74.3 °F /  23.5 °C 51.6 °F /  10.9 °C 29.54in /  1000.2hPa South 14.1mph /  22.7km/h 14.1mph /  22.7km/h 45% 0.00in /  0mm meteobridge W/m2
17:40 73.8 °F /  23.2 °C 51.6 °F /  10.9 °C 29.54in /  1000.2hPa SE 2.9mph /  4.7km/h 11.0mph /  17.7km/h 46% 0.00in /  0mm meteobridge W/m2
17:46 73.6 °F /  23.1 °C 52.2 °F /  11.2 °C 29.55in /  1000.6hPa SSE 6.9mph /  11.1km/h 9.0mph /  14.5km/h 47% 0.00in /  0mm meteobridge W/m2
17:52 73.2 °F /  22.9 °C 51.8 °F /  11 °C 29.55in /  1000.6hPa SE 4.0mph /  6.4km/h 12.0mph /  19.3km/h 47% 0.00in /  0mm meteobridge W/m2
17:58 74.3 °F /  23.5 °C 52.2 °F /  11.2 °C 29.55in /  1000.6hPa South 2.9mph /  4.7km/h 9.0mph /  14.5km/h 46% 0.00in /  0mm meteobridge W/m2
18:05 74.8 °F /  23.8 °C 51.4 °F /  10.8 °C 29.55in /  1000.6hPa SSE 4.0mph /  6.4km/h 6.0mph /  9.7km/h 44% 0.00in /  0mm meteobridge W/m2
18:11 74.1 °F /  23.4 °C 52.5 °F /  11.4 °C 29.55in /  1000.6hPa SSE 6.0mph /  9.7km/h 14.0mph /  22.5km/h 47% 0.00in /  0mm meteobridge W/m2
18:17 73.6 °F /  23.1 °C 52.7 °F /  11.5 °C 29.55in /  1000.6hPa Calm   5.0mph /  8km/h 48% 0.00in /  0mm meteobridge W/m2
18:23 73.4 °F /  23 °C 51.4 °F /  10.8 °C 29.55in /  1000.6hPa SW 2.0mph /  3.2km/h 9.0mph /  14.5km/h 46% 0.00in /  0mm meteobridge W/m2
18:29 74.3 °F /  23.5 °C 49.6 °F /  9.8 °C 29.56in /  1000.9hPa West 2.0mph /  3.2km/h 7.0mph /  11.3km/h 42% 0.00in /  0mm meteobridge W/m2
18:35 75.4 °F /  24.1 °C 50.7 °F /  10.4 °C 29.55in /  1000.6hPa SSE 11.0mph /  17.7km/h 12.0mph /  19.3km/h 42% 0.00in /  0mm meteobridge W/m2
18:42 75.6 °F /  24.2 °C 50.9 °F /  10.5 °C 29.56in /  1000.9hPa SSE 12.1mph /  19.5km/h 15.0mph /  24.1km/h 42% 0.00in /  0mm meteobridge W/m2
18:48 72.9 °F /  22.7 °C 51.4 °F /  10.8 °C 29.57in /  1001.2hPa SSE 8.9mph /  14.3km/h 16.0mph /  25.7km/h 47% 0.00in /  0mm meteobridge W/m2
18:54 71.2 °F /  21.8 °C 51.6 °F /  10.9 °C 29.57in /  1001.2hPa South 4.9mph /  7.9km/h 17.0mph /  27.4km/h 50% 0.00in /  0mm meteobridge W/m2
19:01 70.5 °F /  21.4 °C 52.0 °F /  11.1 °C 29.57in /  1001.2hPa SSE 8.1mph /  13km/h 8.1mph /  13km/h 52% 0.00in /  0mm meteobridge W/m2
19:07 70.5 °F /  21.4 °C 52.0 °F /  11.1 °C 29.58in /  1001.6hPa SSE 8.1mph /  13km/h -999.0mph /  -1607.7km/h 52% 0.00in /  0mm meteobridge W/m2
19:14 70.5 °F /  21.4 °C 52.0 °F /  11.1 °C 29.58in /  1001.6hPa SSE 8.1mph /  13km/h -999.0mph /  -1607.7km/h 52% 0.00in /  0mm meteobridge W/m2
Regenstein, Windhoek, Namibia
Compliments of Weather Underground - 2.5 mb